Time;durP1;ratioP1;P1;durP2;ratioP2;P2;SDS_P1;SDS_P2;PMS_P1;PMS_P2;Temp;Humidity;BMP_temperature;BMP_pressure;BME280_temperature;BME280_humidity;BME280_pressure;Samples;Min_cycle;Max_cycle;Signal;HPM_P1;HPM_P2
2022/11/07 00:02:20;;;;;;;6.83;6.13;;;10.00;99.90;;;;;;5110873;28;20169;-52
2022/11/07 00:04:45;;;;;;;8.07;6.50;;;10.00;99.90;;;;;;5111366;28;20654;-54
2022/11/07 00:07:11;;;;;;;7.17;6.47;;;10.10;99.90;;;;;;5111107;28;20188;-57
2022/11/07 00:09:36;;;;;;;7.10;6.40;;;10.10;99.90;;;;;;5111657;28;20173;-54
2022/11/07 00:12:02;;;;;;;6.73;6.13;;;10.10;99.90;;;;;;5111718;28;20244;-51
2022/11/07 00:14:28;;;;;;;6.77;6.07;;;10.00;99.90;;;;;;5111447;28;20703;-53
2022/11/07 00:16:53;;;;;;;7.73;6.93;;;10.20;99.90;;;;;;5111467;28;20527;-57
2022/11/07 00:19:20;;;;;;;7.03;6.33;;;10.20;99.90;;;;;;5111753;28;20204;-53
2022/11/07 00:21:47;;;;;;;7.97;6.70;;;10.10;99.90;;;;;;5111641;28;20246;-54
2022/11/07 00:24:16;;;;;;;7.90;6.60;;;10.10;99.90;;;;;;5111122;28;20233;-55
2022/11/07 00:26:42;;;;;;;8.20;6.93;;;10.10;99.90;;;;;;5111406;28;20661;-56
2022/11/07 00:29:13;;;;;;;7.70;6.57;;;10.10;99.90;;;;;;5093406;28;20169;-54
2022/11/07 00:31:38;;;;;;;8.30;7.40;;;10.10;99.90;;;;;;5110958;28;20185;-55
2022/11/07 00:34:04;;;;;;;7.77;6.97;;;10.00;99.90;;;;;;5110979;28;20207;-53
2022/11/07 00:36:30;;;;;;;7.27;6.57;;;10.00;99.90;;;;;;5111493;28;20665;-55
2022/11/07 00:38:55;;;;;;;7.57;6.53;;;10.00;99.90;;;;;;5111360;28;20175;-55
2022/11/07 00:41:22;;;;;;;6.70;6.10;;;10.00;99.90;;;;;;5111655;28;20184;-55
2022/11/07 00:43:47;;;;;;;6.47;5.70;;;10.00;99.90;;;;;;5110724;28;20207;-57
2022/11/07 00:46:15;;;;;;;7.57;6.23;;;9.90;99.90;;;;;;5111057;28;20166;-52
2022/11/07 00:48:41;;;;;;;7.20;6.30;;;10.20;99.90;;;;;;5110847;28;20181;-54
2022/11/07 00:51:10;;;;;;;6.97;6.20;;;9.90;99.90;;;;;;5110374;28;20188;-55
2022/11/07 00:53:36;;;;;;;6.90;6.17;;;9.80;99.90;;;;;;5110944;28;20193;-56
2022/11/07 00:56:04;;;;;;;7.23;6.20;;;9.90;99.90;;;;;;5111424;28;20180;-54
2022/11/07 00:58:30;;;;;;;7.33;6.53;;;9.90;99.90;;;;;;5111177;28;20565;-57
2022/11/07 01:00:56;;;;;;;6.90;6.20;;;9.90;99.90;;;;;;5110802;28;20212;-57
2022/11/07 01:06:07;;;;;;;9.53;6.53;;;9.90;99.90;;;;;;5111634;28;20226;-57
2022/11/07 01:08:33;;;;;;;7.83;6.80;;;10.00;99.90;;;;;;5111304;28;20165;-51
2022/11/07 01:11:02;;;;;;;7.27;6.40;;;10.00;99.90;;;;;;5111253;28;20169;-54
2022/11/07 01:13:27;;;;;;;9.53;7.07;;;10.00;99.90;;;;;;5110937;28;20575;-54
2022/11/07 01:15:53;;;;;;;7.97;6.67;;;10.00;99.90;;;;;;5110945;28;20252;-55
2022/11/07 01:18:19;;;;;;;7.80;7.00;;;10.00;99.90;;;;;;5110289;28;20669;-56
2022/11/07 01:20:45;;;;;;;7.80;6.20;;;9.80;99.90;;;;;;5111090;28;20184;-56
2022/11/07 01:23:11;;;;;;;8.07;6.40;;;9.80;99.90;;;;;;5110798;28;20197;-53
2022/11/07 01:25:37;;;;;;;7.90;6.67;;;9.80;99.90;;;;;;5111080;28;20168;-57
2022/11/07 01:28:04;;;;;;;7.60;6.80;;;9.80;99.90;;;;;;5111051;28;20181;-56
2022/11/07 01:30:30;;;;;;;7.00;6.30;;;9.80;99.90;;;;;;5110827;28;20165;-51
2022/11/07 01:32:55;;;;;;;9.27;6.90;;;10.20;99.90;;;;;;5110854;28;20180;-57
2022/11/07 01:35:21;;;;;;;7.30;6.60;;;10.00;99.90;;;;;;5110901;28;20216;-53
2022/11/07 01:37:46;;;;;;;7.40;6.60;;;10.20;99.90;;;;;;5113768;28;20234;-57
2022/11/07 01:40:12;;;;;;;8.57;6.77;;;10.10;99.90;;;;;;5114943;28;20177;-53
2022/11/07 01:42:38;;;;;;;7.30;6.57;;;10.30;99.90;;;;;;5114620;28;20193;-54
2022/11/07 01:45:04;;;;;;;6.90;6.20;;;9.90;99.90;;;;;;5096156;28;20170;-57
2022/11/07 01:47:36;;;;;;;7.80;6.93;;;10.00;99.90;;;;;;5114444;28;20721;-56
2022/11/07 01:50:04;;;;;;;7.87;6.47;;;10.00;99.90;;;;;;5114477;28;20162;-56
2022/11/07 01:52:37;;;;;;;7.00;6.30;;;10.10;99.90;;;;;;5114413;28;20176;-59
2022/11/07 01:55:16;;;;;;;8.33;6.50;;;10.10;99.90;;;;;;5114278;28;20666;-53
2022/11/07 01:58:14;;;;;;;6.97;6.27;;;10.00;99.90;;;;;;5114167;28;20228;-56
2022/11/07 02:00:39;;;;;;;7.33;6.63;;;10.10;99.90;;;;;;5109248;28;20277;-57
2022/11/07 02:03:09;;;;;;;8.50;6.40;;;10.50;99.90;;;;;;5113151;28;20288;-53
2022/11/07 02:05:43;;;;;;;8.50;6.50;;;10.20;99.90;;;;;;5113307;28;20207;-55
2022/11/07 02:08:10;;;;;;;8.40;6.17;;;10.30;99.90;;;;;;5114042;28;20196;-58
2022/11/07 02:10:38;;;;;;;6.90;6.20;;;10.20;99.90;;;;;;5114443;28;20576;-58
2022/11/07 02:13:04;;;;;;;7.53;6.13;;;10.20;99.90;;;;;;5113758;28;20260;-56
2022/11/07 02:15:32;;;;;;;6.90;6.20;;;10.30;99.90;;;;;;5113933;28;20181;-56
2022/11/07 02:17:59;;;;;;;7.47;6.63;;;10.30;99.90;;;;;;5113718;28;20197;-55
2022/11/07 02:20:24;;;;;;;7.30;6.13;;;10.30;99.90;;;;;;5114079;28;20169;-51
2022/11/07 02:22:59;;;;;;;7.07;6.37;;;10.30;99.90;;;;;;5113740;28;20554;-57
2022/11/07 02:25:25;;;;;;;6.70;5.97;;;10.20;99.90;;;;;;5113778;28;20157;-54
2022/11/07 02:27:56;;;;;;;8.07;6.80;;;10.20;99.90;;;;;;5113720;28;20207;-55
2022/11/07 02:30:25;;;;;;;8.30;7.03;;;10.60;99.90;;;;;;5113786;28;20220;-56
2022/11/07 02:32:51;;;;;;;7.17;6.47;;;10.40;99.90;;;;;;5112928;28;20173;-57
2022/11/07 02:35:42;;;;;;;9.13;7.40;;;10.30;99.90;;;;;;5113265;28;20173;-57
2022/11/07 02:38:29;;;;;;;7.80;7.00;;;10.30;99.90;;;;;;5113534;28;20197;-56
2022/11/07 02:41:11;;;;;;;8.13;6.83;;;10.30;99.90;;;;;;5113676;28;20176;-52
2022/11/07 02:43:44;;;;;;;7.83;7.00;;;10.40;99.90;;;;;;5112874;28;20196;-57
2022/11/07 02:46:12;;;;;;;8.50;7.60;;;10.40;99.90;;;;;;5113022;28;20169;-57
2022/11/07 02:48:47;;;;;;;9.20;7.67;;;10.50;99.90;;;;;;5111664;28;20306;-55
2022/11/07 02:51:13;;;;;;;8.80;7.43;;;10.40;99.90;;;;;;5112367;28;20171;-55
2022/11/07 02:53:39;;;;;;;9.00;7.73;;;10.50;99.90;;;;;;5113067;28;20527;-57
2022/11/07 02:56:05;;;;;;;8.33;7.40;;;10.70;99.90;;;;;;5113193;28;20207;-55
2022/11/07 02:58:31;;;;;;;8.53;7.63;;;10.40;99.90;;;;;;5113201;28;20193;-55
2022/11/07 03:01:01;;;;;;;8.10;7.30;;;10.50;99.90;;;;;;5112843;28;20621;-58
2022/11/07 03:03:29;;;;;;;8.53;6.80;;;10.40;99.90;;;;;;5112131;28;20216;-54
2022/11/07 03:05:55;;;;;;;8.33;7.27;;;10.50;99.90;;;;;;5113024;28;20168;-57
2022/11/07 03:08:20;;;;;;;8.67;7.23;;;10.40;99.90;;;;;;5113082;28;20685;-56
2022/11/07 03:10:46;;;;;;;8.50;7.67;;;10.30;99.90;;;;;;5112830;28;20176;-54
2022/11/07 03:13:11;;;;;;;10.63;8.10;;;10.40;99.90;;;;;;5112660;28;20173;-57
2022/11/07 03:15:37;;;;;;;11.27;8.20;;;10.40;99.90;;;;;;5112755;28;20180;-57
2022/11/07 03:18:02;;;;;;;8.20;7.40;;;10.50;99.90;;;;;;5112709;28;20599;-55
2022/11/07 03:20:28;;;;;;;8.53;7.23;;;10.50;99.90;;;;;;5112705;28;20177;-58
2022/11/07 03:22:54;;;;;;;11.23;8.07;;;10.50;99.90;;;;;;5112636;28;20216;-55
2022/11/07 03:25:19;;;;;;;8.20;7.40;;;10.50;99.90;;;;;;5112420;28;20173;-56
2022/11/07 03:27:49;;;;;;;8.23;7.00;;;10.50;99.90;;;;;;5112576;28;20189;-54
2022/11/07 03:30:15;;;;;;;8.73;7.40;;;10.50;99.90;;;;;;5112572;28;20252;-55
2022/11/07 03:32:41;;;;;;;8.00;7.20;;;10.60;99.90;;;;;;5112347;28;20622;-58
2022/11/07 03:35:07;;;;;;;9.17;8.17;;;10.50;99.90;;;;;;5112130;28;20184;-58
2022/11/07 03:37:33;;;;;;;8.40;7.50;;;10.40;99.90;;;;;;5112348;28;20199;-56
2022/11/07 03:39:58;;;;;;;8.90;7.27;;;10.80;99.90;;;;;;5112408;28;20592;-57
2022/11/07 03:42:24;;;;;;;8.23;7.13;;;10.50;99.90;;;;;;5112188;28;20511;-56
2022/11/07 03:44:49;;;;;;;8.47;7.63;;;10.50;99.90;;;;;;5112017;28;20199;-57
2022/11/07 03:47:15;;;;;;;9.30;8.10;;;10.60;99.90;;;;;;5112362;28;20193;-53
2022/11/07 03:49:40;;;;;;;8.73;7.83;;;10.60;99.90;;;;;;5112294;28;20172;-57
2022/11/07 03:52:06;;;;;;;9.23;7.60;;;10.60;99.90;;;;;;5112219;28;20533;-57
2022/11/07 03:54:31;;;;;;;9.20;8.30;;;10.50;99.90;;;;;;5111837;28;20275;-56
2022/11/07 03:56:57;;;;;;;9.00;8.10;;;10.50;99.90;;;;;;5111948;28;20242;-57
2022/11/07 03:59:23;;;;;;;8.07;7.27;;;10.50;99.90;;;;;;5111695;28;20662;-57
2022/11/07 04:01:48;;;;;;;8.27;7.47;;;10.50;99.90;;;;;;5111318;28;20177;-57
2022/11/07 04:04:14;;;;;;;8.73;7.77;;;10.50;99.90;;;;;;5111473;28;20794;-56
2022/11/07 04:06:39;;;;;;;8.00;7.20;;;10.80;99.90;;;;;;5111002;28;20197;-57
2022/11/07 04:09:06;;;;;;;8.73;7.70;;;10.50;99.90;;;;;;5111807;28;20669;-57
2022/11/07 04:17:17;;;;;;;7.83;7.03;;;10.60;99.90;;;;;;5110917;28;20252;-59
2022/11/07 04:19:43;;;;;;;7.27;6.57;;;10.70;99.90;;;;;;5111611;28;20216;-58
2022/11/07 04:22:08;;;;;;;8.67;7.53;;;10.70;99.90;;;;;;5111661;28;20208;-58
2022/11/07 04:24:34;;;;;;;8.77;7.20;;;10.60;99.90;;;;;;5111237;28;20201;-57
2022/11/07 04:29:44;;;;;;;8.00;7.10;;;10.70;99.90;;;;;;5111564;28;20258;-56
2022/11/07 04:32:09;;;;;;;8.77;7.47;;;10.70;99.90;;;;;;5111401;28;20228;-57
2022/11/07 04:34:35;;;;;;;8.17;7.37;;;10.70;99.90;;;;;;5111020;28;20233;-55
2022/11/07 04:37:01;;;;;;;8.43;7.60;;;10.80;99.90;;;;;;5111575;28;20203;-58
2022/11/07 04:39:27;;;;;;;7.90;7.00;;;10.70;99.90;;;;;;5111490;28;20684;-57
2022/11/07 04:41:53;;;;;;;9.10;7.53;;;10.70;99.90;;;;;;5111617;28;20192;-58
2022/11/07 04:44:18;;;;;;;7.77;6.97;;;10.90;99.90;;;;;;5111069;28;20204;-58
2022/11/07 04:46:44;;;;;;;8.53;7.57;;;10.70;99.90;;;;;;5110969;28;20507;-57
2022/11/07 04:49:13;;;;;;;7.70;6.90;;;11.00;99.90;;;;;;5111504;28;20218;-58
2022/11/07 04:51:43;;;;;;;7.50;6.77;;;10.80;99.90;;;;;;5099216;28;20197;-59
2022/11/07 04:54:12;;;;;;;7.83;7.03;;;11.00;99.90;;;;;;5089216;28;20169;-56
2022/11/07 04:59:03;;;;;;;9.27;7.70;;;10.90;99.90;;;;;;5121277;22;20761;-47
2022/11/07 05:01:29;;;;;;;8.80;7.37;;;11.00;99.90;;;;;;5090063;28;20727;-52
2022/11/07 05:03:54;;;;;;;8.97;8.07;;;11.00;99.90;;;;;;5089827;28;20220;-55
2022/11/07 05:06:20;;;;;;;13.27;11.87;;;11.00;99.90;;;;;;5071816;28;20212;-53
2022/11/07 05:08:46;;;;;;;11.73;10.53;;;11.40;99.90;;;;;;5090836;28;20273;-48
2022/11/07 05:11:12;;;;;;;11.77;10.00;;;10.90;99.90;;;;;;5091348;28;20170;-56
2022/11/07 05:13:37;;;;;;;8.90;7.93;;;10.90;99.90;;;;;;5094520;28;20685;-56
2022/11/07 05:16:03;;;;;;;9.27;8.27;;;10.70;99.90;;;;;;5094342;28;20180;-50
2022/11/07 05:18:29;;;;;;;8.10;7.30;;;10.90;99.90;;;;;;5094019;28;20196;-47
2022/11/07 05:20:55;;;;;;;9.10;8.13;;;11.30;99.90;;;;;;5094657;28;20221;-54
2022/11/07 05:23:21;;;;;;;7.80;7.10;;;11.20;99.90;;;;;;5094227;28;20224;-54
2022/11/07 05:25:51;;;;;;;9.43;7.97;;;10.90;99.90;;;;;;5094719;28;20162;-55
2022/11/07 05:28:35;;;;;;;13.27;10.70;;;10.90;99.90;;;;;;5093958;28;20601;-55
2022/11/07 05:31:02;;;;;;;10.70;9.60;;;11.00;99.90;;;;;;5094134;28;20170;-56
2022/11/07 05:33:28;;;;;;;8.50;7.70;;;11.00;99.90;;;;;;5094056;28;20257;-53
2022/11/07 05:35:54;;;;;;;9.07;8.13;;;11.00;99.90;;;;;;5094514;28;20212;-54
2022/11/07 05:38:19;;;;;;;10.87;8.40;;;11.00;99.90;;;;;;5094058;28;20235;-50
2022/11/07 05:40:45;;;;;;;9.30;8.37;;;11.00;99.90;;;;;;5094314;28;20219;-55
2022/11/07 05:43:13;;;;;;;11.87;8.13;;;10.70;99.90;;;;;;5093843;28;20197;-52
2022/11/07 05:45:39;;;;;;;7.77;6.97;;;10.70;99.90;;;;;;5093964;28;20182;-54
2022/11/07 05:48:12;;;;;;;9.00;7.47;;;10.80;99.90;;;;;;5093868;28;20193;-54
2022/11/07 05:50:39;;;;;;;8.77;7.87;;;10.70;99.90;;;;;;5093491;28;20201;-54
2022/11/07 05:53:05;;;;;;;11.30;7.40;;;10.80;99.90;;;;;;5093414;28;20166;-49
2022/11/07 05:55:31;;;;;;;10.80;7.20;;;11.20;99.90;;;;;;5094202;28;20650;-55
2022/11/07 05:57:57;;;;;;;8.30;7.50;;;10.80;99.90;;;;;;5094015;28;20232;-51
2022/11/07 06:00:23;;;;;;;8.47;7.57;;;10.70;99.90;;;;;;5093800;28;20184;-54
2022/11/07 06:02:56;;;;;;;8.47;7.57;;;10.60;99.90;;;;;;5075551;28;20222;-55
2022/11/07 06:05:22;;;;;;;9.60;7.63;;;10.70;99.90;;;;;;5073238;28;20189;-49
2022/11/07 06:07:47;;;;;;;8.50;7.33;;;10.80;99.90;;;;;;5073419;28;20250;-56
2022/11/07 06:10:13;;;;;;;9.40;8.40;;;10.60;99.90;;;;;;5086301;28;20508;-53
2022/11/07 06:12:38;;;;;;;7.70;6.90;;;10.60;99.90;;;;;;5093793;28;20243;-55
2022/11/07 06:15:04;;;;;;;7.77;6.57;;;10.60;99.90;;;;;;5089630;28;20656;-48
2022/11/07 06:17:30;;;;;;;8.47;7.67;;;10.60;99.90;;;;;;5088821;28;20627;-53
2022/11/07 06:19:55;;;;;;;8.77;7.87;;;10.40;99.90;;;;;;5092537;28;20205;-57
2022/11/07 06:22:23;;;;;;;10.03;9.03;;;10.10;99.90;;;;;;5091803;28;20682;-54
2022/11/07 06:24:49;;;;;;;9.70;8.73;;;10.20;99.90;;;;;;5092670;28;20634;-55
2022/11/07 06:27:14;;;;;;;8.60;7.73;;;10.70;99.90;;;;;;5092356;28;20228;-57
2022/11/07 06:29:40;;;;;;;9.70;8.47;;;10.80;99.90;;;;;;5092787;28;20666;-54
2022/11/07 06:32:05;;;;;;;9.20;8.30;;;10.50;99.90;;;;;;5091358;28;20173;-48
2022/11/07 06:34:31;;;;;;;7.87;7.03;;;10.60;99.90;;;;;;5092145;28;20180;-54
2022/11/07 06:36:56;;;;;;;8.27;7.47;;;10.50;99.90;;;;;;5091901;28;20715;-56
2022/11/07 06:39:22;;;;;;;8.53;7.63;;;10.70;99.90;;;;;;5092392;28;20174;-55
2022/11/07 06:41:48;;;;;;;8.03;7.23;;;10.60;99.90;;;;;;5092481;28;20209;-56
2022/11/07 06:44:14;;;;;;;7.57;6.87;;;10.60;99.90;;;;;;5091092;28;20615;-54
2022/11/07 06:46:40;;;;;;;11.77;9.30;;;10.80;99.90;;;;;;5091244;28;20223;-52
2022/11/07 06:49:05;;;;;;;10.10;8.50;;;11.30;99.90;;;;;;5091149;28;20205;-55
2022/11/07 06:51:31;;;;;;;7.57;6.83;;;12.10;99.90;;;;;;5091469;28;20178;-48
2022/11/07 06:53:57;;;;;;;7.53;5.90;;;13.00;99.90;;;;;;5091323;28;20185;-55
2022/11/07 06:56:23;;;;;;;7.67;5.67;;;14.10;99.90;;;;;;5091904;28;20694;-56
2022/11/07 06:58:48;;;;;;;7.57;6.77;;;15.20;99.90;;;;;;5090919;28;20247;-56
2022/11/07 07:01:15;;;;;;;7.67;6.97;;;16.20;99.90;;;;;;5092043;28;20209;-54
2022/11/07 07:03:41;;;;;;;5.77;4.97;;;17.30;99.90;;;;;;5091823;28;20197;-58
2022/11/07 07:06:12;;;;;;;5.77;5.00;;;18.40;99.90;;;;;;5091527;28;20166;-58
2022/11/07 07:08:37;;;;;;;5.80;5.20;;;19.60;99.90;;;;;;5080711;28;20570;-57
2022/11/07 07:11:05;;;;;;;5.00;4.50;;;20.80;99.20;;;;;;5088289;28;20268;-57
2022/11/07 07:13:31;;;;;;;5.03;4.43;;;22.00;97.30;;;;;;5088710;28;20194;-59
2022/11/07 07:15:58;;;;;;;5.85;3.95;;;23.20;95.50;;;;;;5090642;28;20181;-59
2022/11/07 07:18:24;;;;;;;7.85;7.15;;;24.40;93.50;;;;;;5090730;28;20258;-56
2022/11/07 07:20:50;;;;;;;5.32;4.80;;;25.50;91.40;;;;;;5090464;28;20174;-57
2022/11/07 07:23:18;;;;;;;4.40;4.00;;;26.60;88.10;;;;;;5091515;28;20251;-59
2022/11/07 07:25:44;;;;;;;4.13;3.47;;;27.20;83.70;;;;;;5091695;28;20647;-59
2022/11/07 07:28:10;;;;;;;5.18;4.07;;;27.50;81.90;;;;;;5091575;28;20575;-59
2022/11/07 07:30:35;;;;;;;5.25;4.70;;;28.20;78.20;;;;;;5092231;28;20174;-59
2022/11/07 07:33:01;;;;;;;4.97;4.30;;;28.40;75.20;;;;;;5091040;28;20260;-58
2022/11/07 07:35:27;;;;;;;4.05;3.75;;;28.00;73.50;;;;;;5090079;28;20216;-58
2022/11/07 07:37:52;;;;;;;9.32;8.50;;;27.20;75.10;;;;;;5091795;28;20194;-59
2022/11/07 07:40:19;;;;;;;6.40;5.80;;;26.80;76.00;;;;;;5092120;28;20253;-59
2022/11/07 07:42:44;;;;;;;6.22;5.18;;;27.00;74.50;;;;;;5091862;28;20173;-58
2022/11/07 07:45:12;;;;;;;4.47;4.07;;;26.70;73.20;;;;;;5091651;28;20165;-57
2022/11/07 07:47:38;;;;;;;4.85;4.38;;;26.00;73.80;;;;;;5090833;28;20190;-56
2022/11/07 07:50:05;;;;;;;4.68;4.32;;;25.10;76.80;;;;;;5091941;28;20170;-56
2022/11/07 07:52:30;;;;;;;5.32;4.72;;;25.00;78.00;;;;;;5090487;28;20631;-55
2022/11/07 07:54:56;;;;;;;4.45;4.05;;;25.20;77.20;;;;;;5091499;28;20248;-55
2022/11/07 07:57:21;;;;;;;4.53;4.13;;;25.30;79.70;;;;;;5091510;28;20683;-54
2022/11/07 07:59:47;;;;;;;4.15;3.80;;;25.80;78.30;;;;;;5091756;28;20201;-55
2022/11/07 08:02:13;;;;;;;5.05;3.97;;;25.80;76.90;;;;;;5091466;28;20261;-53
2022/11/07 08:04:42;;;;;;;6.45;5.85;;;25.20;77.50;;;;;;5091075;28;20201;-56
2022/11/07 08:07:07;;;;;;;4.72;4.32;;;24.30;78.60;;;;;;5091649;28;20216;-56
2022/11/07 08:09:36;;;;;;;4.07;3.78;;;23.00;80.20;;;;;;5091571;28;20666;-51
2022/11/07 08:12:07;;;;;;;4.20;3.90;;;21.90;85.30;;;;;;5091495;28;20651;-56
2022/11/07 08:14:33;;;;;;;5.40;4.47;;;20.90;89.10;;;;;;5091174;28;20647;-56
2022/11/07 08:16:59;;;;;;;4.83;4.43;;;19.90;90.50;;;;;;5090709;28;20217;-53
2022/11/07 08:19:25;;;;;;;7.20;6.60;;;19.20;92.40;;;;;;5091353;28;20170;-49
2022/11/07 08:21:51;;;;;;;5.10;4.60;;;18.80;93.60;;;;;;5091475;28;20177;-53
2022/11/07 08:24:17;;;;;;;4.80;4.40;;;18.20;96.30;;;;;;5090968;28;20200;-51
2022/11/07 08:26:43;;;;;;;4.50;4.10;;;18.10;97.60;;;;;;5091217;28;20165;-51
2022/11/07 08:29:09;;;;;;;4.70;4.13;;;18.00;98.50;;;;;;5091419;28;20171;-55
2022/11/07 08:31:35;;;;;;;5.37;4.80;;;17.90;98.80;;;;;;5091042;28;20178;-54
2022/11/07 08:34:00;;;;;;;5.70;4.53;;;17.50;99.00;;;;;;5090950;28;20182;-53
2022/11/07 08:36:27;;;;;;;5.67;4.50;;;17.00;99.90;;;;;;5090223;28;20178;-51
2022/11/07 08:38:53;;;;;;;5.63;4.77;;;16.60;99.90;;;;;;5091153;28;20214;-50
2022/11/07 08:41:19;;;;;;;5.07;4.57;;;16.40;99.90;;;;;;5091101;28;20205;-48
2022/11/07 08:43:44;;;;;;;5.40;4.57;;;16.50;99.90;;;;;;5090796;28;20277;-54
2022/11/07 08:46:10;;;;;;;4.60;4.20;;;16.30;99.90;;;;;;5092911;28;20253;-52
2022/11/07 08:48:36;;;;;;;5.13;4.63;;;16.10;99.90;;;;;;5094385;28;20280;-50
2022/11/07 08:51:01;;;;;;;7.20;6.50;;;15.70;99.90;;;;;;5094386;28;20214;-56
2022/11/07 08:53:28;;;;;;;4.23;3.87;;;15.60;99.90;;;;;;5095055;28;20173;-50
2022/11/07 08:56:20;;;;;;;4.80;4.30;;;15.90;99.90;;;;;;5095255;28;20173;-51
2022/11/07 08:58:46;;;;;;;4.93;4.03;;;16.70;99.90;;;;;;5091148;28;20229;-56
2022/11/07 09:01:11;;;;;;;5.20;4.67;;;17.10;99.90;;;;;;5094905;28;20183;-48
2022/11/07 09:03:38;;;;;;;6.40;4.30;;;17.20;99.90;;;;;;5094693;28;20197;-52
2022/11/07 09:06:04;;;;;;;5.40;4.70;;;16.80;99.90;;;;;;5095070;28;20257;-49
2022/11/07 09:08:31;;;;;;;5.50;4.83;;;16.90;99.90;;;;;;5094903;28;20189;-49
2022/11/07 09:11:03;;;;;;;4.77;4.37;;;16.90;99.90;;;;;;5094727;28;20226;-51
2022/11/07 09:13:30;;;;;;;6.37;4.23;;;16.30;99.90;;;;;;5094572;28;20178;-56
2022/11/07 09:15:58;;;;;;;4.67;4.27;;;17.70;99.90;;;;;;5094580;28;20305;-53
2022/11/07 09:18:24;;;;;;;6.20;4.53;;;18.20;99.90;;;;;;5094569;28;20276;-53
2022/11/07 09:20:50;;;;;;;4.80;4.30;;;18.60;99.90;;;;;;5094861;28;20166;-56
2022/11/07 09:23:15;;;;;;;3.85;3.55;;;19.70;99.90;;;;;;5094235;28;20246;-58
2022/11/07 09:25:41;;;;;;;4.55;3.67;;;21.30;99.80;;;;;;5094663;28;20166;-56
2022/11/07 09:28:07;;;;;;;3.42;3.13;;;22.70;97.30;;;;;;5094514;28;20193;-55
2022/11/07 09:30:32;;;;;;;3.67;3.38;;;24.20;94.20;;;;;;5094569;28;20303;-57
2022/11/07 09:32:58;;;;;;;3.25;2.97;;;24.60;92.20;;;;;;5093590;28;20174;-57
2022/11/07 09:35:25;;;;;;;5.07;3.40;;;24.90;91.00;;;;;;5092918;28;20269;-57
2022/11/07 09:37:50;;;;;;;2.95;2.75;;;25.50;90.50;;;;;;5094283;28;20189;-56
2022/11/07 09:40:31;;;;;;;3.08;2.85;;;25.50;90.90;;;;;;5094360;28;20662;-56
2022/11/07 09:43:02;;;;;;;2.70;2.50;;;26.00;90.50;;;;;;5094032;28;20619;-57
2022/11/07 09:45:35;;;;;;;2.88;2.67;;;26.80;87.60;;;;;;5094114;28;20190;-58
2022/11/07 09:48:05;;;;;;;2.85;2.65;;;27.60;82.20;;;;;;5093554;28;20217;-58
2022/11/07 09:50:36;;;;;;;3.10;2.72;;;28.30;80.60;;;;;;5093342;28;20692;-57
2022/11/07 09:53:17;;;;;;;3.00;2.80;;;28.80;76.60;;;;;;5094032;28;20223;-58
2022/11/07 09:55:58;;;;;;;3.15;2.80;;;29.00;74.10;;;;;;5094029;28;20239;-57
2022/11/07 09:58:32;;;;;;;2.90;2.70;;;28.40;72.20;;;;;;5093353;28;20209;-55
2022/11/07 10:01:01;;;;;;;2.92;2.67;;;27.80;72.40;;;;;;5093775;28;20196;-58
2022/11/07 10:03:27;;;;;;;2.85;2.63;;;27.50;73.60;;;;;;5093269;28;20197;-57
2022/11/07 10:06:13;;;;;;;3.00;2.70;;;26.80;75.90;;;;;;5093813;28;20223;-57
2022/11/07 10:08:54;;;;;;;2.20;2.00;;;25.90;79.30;;;;;;5093830;28;20190;-58
2022/11/07 10:11:25;;;;;;;2.30;2.10;;;27.00;81.20;;;;;;5093645;28;20181;-59
2022/11/07 10:14:06;;;;;;;2.30;2.08;;;28.60;77.50;;;;;;5093424;28;20264;-59
2022/11/07 10:16:57;;;;;;;2.13;1.92;;;31.20;70.60;;;;;;5093567;28;20201;-55
2022/11/07 10:19:55;;;;;;;1.90;1.80;;;33.30;62.50;;;;;;5093672;28;20178;-59
2022/11/07 10:22:40;;;;;;;1.90;1.80;;;35.30;55.30;;;;;;5093179;28;20177;-59
2022/11/07 10:25:24;;;;;;;2.15;1.83;;;37.30;51.20;;;;;;5093079;28;20654;-57
2022/11/07 10:28:12;;;;;;;1.65;1.55;;;37.80;49.00;;;;;;5093480;28;20185;-59
2022/11/07 10:30:37;;;;;;;2.20;1.98;;;38.70;48.40;;;;;;5093075;28;20181;-59
2022/11/07 10:33:41;;;;;;;1.98;1.85;;;38.10;46.90;;;;;;5093240;28;20192;-59
2022/11/07 10:36:15;;;;;;;2.03;1.92;;;36.10;45.80;;;;;;5093294;28;20591;-59
2022/11/07 10:38:41;;;;;;;2.38;1.75;;;33.70;48.20;;;;;;5093122;28;20189;-59
2022/11/07 10:41:19;;;;;;;2.40;2.20;;;32.50;51.40;;;;;;5093056;28;20180;-58
2022/11/07 10:43:49;;;;;;;2.88;2.40;;;32.50;52.00;;;;;;5092761;28;20225;-58
2022/11/07 10:46:23;;;;;;;3.05;2.33;;;32.40;53.40;;;;;;5092874;28;20193;-58
2022/11/07 10:48:55;;;;;;;2.83;2.45;;;32.10;53.60;;;;;;5091477;28;20626;-59
2022/11/07 10:51:36;;;;;;;2.88;2.63;;;31.90;53.90;;;;;;5091660;28;20539;-58
2022/11/07 10:54:01;;;;;;;2.83;2.63;;;31.80;53.90;;;;;;5090793;28;20647;-58
2022/11/07 10:56:27;;;;;;;4.15;3.85;;;31.50;53.20;;;;;;5092817;28;20178;-58
2022/11/07 10:58:52;;;;;;;2.72;2.53;;;31.30;54.00;;;;;;5223693;22;20229;-61
2022/11/07 11:01:25;;;;;;;2.60;2.40;;;31.50;55.40;;;;;;5092784;28;20170;-60
2022/11/07 11:03:52;;;;;;;3.88;2.50;;;31.50;54.50;;;;;;5092058;28;20193;-57
2022/11/07 11:06:17;;;;;;;3.70;2.40;;;31.10;56.10;;;;;;5092595;28;20170;-59
2022/11/07 11:08:48;;;;;;;2.60;2.40;;;32.10;54.50;;;;;;5091630;28;20659;-56
2022/11/07 11:11:19;;;;;;;2.00;1.80;;;33.00;52.80;;;;;;5092487;28;20169;-58
2022/11/07 11:13:45;;;;;;;2.40;2.20;;;34.40;50.50;;;;;;5092055;28;20243;-60
2022/11/07 11:16:29;;;;;;;2.08;1.98;;;35.30;46.90;;;;;;5092273;28;20171;-60
2022/11/07 11:18:57;;;;;;;1.80;1.70;;;35.40;47.10;;;;;;5092062;28;20771;-60
2022/11/07 11:21:23;;;;;;;2.35;1.77;;;34.90;48.90;;;;;;5092289;28;20265;-58
2022/11/07 11:23:50;;;;;;;2.10;1.73;;;35.40;50.20;;;;;;5091890;28;20176;-60
2022/11/07 11:26:31;;;;;;;2.60;2.40;;;36.40;45.70;;;;;;5092291;28;20189;-60
2022/11/07 11:29:21;;;;;;;2.40;1.98;;;38.00;46.30;;;;;;5092102;28;20242;-60
2022/11/07 11:31:50;;;;;;;2.10;1.90;;;39.30;44.20;;;;;;5092312;28;20264;-59
2022/11/07 11:34:23;;;;;;;1.95;1.85;;;38.50;44.40;;;;;;5091824;28;20227;-60
2022/11/07 11:37:18;;;;;;;3.83;2.17;;;38.00;44.00;;;;;;5091976;28;20569;-60
2022/11/07 11:39:51;;;;;;;1.90;1.80;;;38.40;41.60;;;;;;5091906;28;20176;-58
2022/11/07 11:42:44;;;;;;;1.90;1.80;;;37.20;43.90;;;;;;5092168;28;20181;-60
2022/11/07 11:45:29;;;;;;;2.53;2.20;;;34.90;46.40;;;;;;5091617;28;20165;-60
2022/11/07 11:48:05;;;;;;;2.22;2.10;;;34.00;46.00;;;;;;5091920;28;20192;-59
2022/11/07 11:50:44;;;;;;;2.85;2.35;;;32.50;48.10;;;;;;5091965;28;20165;-60
2022/11/07 11:53:16;;;;;;;2.30;2.15;;;31.00;49.40;;;;;;5091442;28;20197;-59
2022/11/07 11:56:02;;;;;;;2.13;2.03;;;29.90;52.00;;;;;;5091632;28;20166;-59
2022/11/07 11:58:35;;;;;;;2.22;2.10;;;28.70;53.80;;;;;;5091548;28;20584;-60
2022/11/07 12:01:12;;;;;;;2.15;1.92;;;27.90;56.60;;;;;;5091759;28;20190;-59
2022/11/07 12:03:50;;;;;;;2.28;2.05;;;27.40;57.40;;;;;;5091483;28;20188;-58
2022/11/07 12:06:27;;;;;;;2.90;2.10;;;27.20;58.00;;;;;;5091716;28;20674;-58
2022/11/07 12:09:07;;;;;;;2.10;1.90;;;27.50;56.20;;;;;;5091696;28;20284;-60
2022/11/07 12:11:44;;;;;;;2.03;1.92;;;27.50;56.20;;;;;;5091586;28;20169;-59
2022/11/07 12:14:20;;;;;;;2.13;2.03;;;27.40;57.20;;;;;;5091227;28;20219;-59
2022/11/07 12:17:01;;;;;;;2.50;2.30;;;27.30;57.60;;;;;;5091374;28;20170;-59
2022/11/07 12:19:38;;;;;;;2.45;2.25;;;27.20;58.40;;;;;;5091484;28;20670;-54
2022/11/07 12:22:43;;;;;;;2.40;2.20;;;27.00;59.80;;;;;;5090983;28;20200;-58
2022/11/07 12:25:30;;;;;;;2.70;2.50;;;26.70;59.00;;;;;;5090978;28;20162;-59
2022/11/07 12:28:33;;;;;;;2.55;2.35;;;25.90;61.10;;;;;;5091171;28;20185;-58
2022/11/07 12:31:25;;;;;;;2.92;2.50;;;25.20;63.90;;;;;;5091061;28;20174;-57
2022/11/07 12:34:01;;;;;;;2.47;2.28;;;24.70;66.30;;;;;;5090993;28;20284;-60
2022/11/07 12:36:33;;;;;;;2.78;2.53;;;24.70;65.90;;;;;;5091179;28;20176;-59
2022/11/07 12:39:14;;;;;;;2.38;2.17;;;24.60;65.90;;;;;;5091286;28;20197;-59
2022/11/07 12:42:17;;;;;;;2.70;2.50;;;24.40;66.80;;;;;;5090955;28;20168;-59
2022/11/07 12:44:59;;;;;;;2.53;2.33;;;24.40;67.60;;;;;;5090686;28;20180;-57
2022/11/07 12:48:05;;;;;;;3.45;2.30;;;24.90;68.50;;;;;;5091241;28;20169;-59
2022/11/07 12:50:52;;;;;;;2.60;2.40;;;25.90;67.20;;;;;;5091092;28;20182;-59
2022/11/07 12:53:18;;;;;;;2.47;2.28;;;26.80;64.70;;;;;;5082127;28;20195;-59
2022/11/07 12:55:48;;;;;;;2.10;2.00;;;27.40;63.20;;;;;;5078452;28;20178;-59
2022/11/07 12:58:22;;;;;;;2.35;2.15;;;27.80;60.50;;;;;;5080342;28;20221;-58
2022/11/07 13:00:48;;;;;;;3.60;2.15;;;28.00;60.90;;;;;;5074495;28;20236;-59
2022/11/07 13:03:32;;;;;;;2.53;2.10;;;28.20;61.10;;;;;;5073581;28;20175;-59
2022/11/07 13:06:37;;;;;;;2.25;2.03;;;28.80;60.80;;;;;;5070303;28;20571;-58
2022/11/07 13:09:17;;;;;;;4.00;2.42;;;28.90;60.30;;;;;;5070517;28;20190;-58
2022/11/07 13:12:07;;;;;;;2.20;2.00;;;29.30;58.80;;;;;;5075841;28;20659;-59
2022/11/07 13:14:42;;;;;;;3.95;2.00;;;29.50;59.70;;;;;;5089098;28;20197;-57